Chandra B — WDI3303 — position and weather

sailwx.info

Track history (hours):
 
Tides and Currents Weather Stations Pressure Air Temp Water Temp Dewpoint Dewpoint Depression Visibility Wind Speed Wind Dir Waves Ship Positions

Chandra B

Owner: American petroleum & Transport, Inc., Port Jefferson, NY. More information available from US FCC via Universal Licensing System and Coast Guard Vessel Documentation Center.

Last reported at 2018-Feb-23 15:26 UTC. Time now 2018-Feb-23 23:59 UTC.
Position N 40°40' W 074°01'.

Length 23 m; draft 3.6 m.

Type: Tanker. MMSI: 367686920.

Date/timePositionNaut miles runAvg speedWind from/ knotsBaromVisibWave heightAir tempDewpointWater temp
2018-Feb-23 15:26N 40°40' W 074°01'2 4.4
2018-Feb-23 15:00N 40°42' W 074°00'2 3.7
2018-Feb-23 14:29N 40°43' W 073°58'1 1.8
2018-Feb-23 13:59N 40°44' W 073°58'1 0.5
2018-Feb-23 11:55N 40°44' W 073°56'1 1.8
2018-Feb-23 11:30N 40°44' W 073°57'2 4.9
2018-Feb-23 11:00N 40°42' W 073°58'0 0.0
2018-Feb-23 10:30N 40°42' W 073°58'0 0.1
2018-Feb-23 10:00N 40°42' W 073°58'0 0.1
2018-Feb-23 09:30N 40°42' W 073°58'0 0.1
2018-Feb-23 08:59N 40°42' W 073°58'0 0.0
2018-Feb-23 08:30N 40°42' W 073°58'2 3.7
2018-Feb-23 08:00N 40°41' W 074°01'1 1.8
2018-Feb-23 07:28N 40°40' W 074°01'0 0.1
2018-Feb-23 07:00N 40°40' W 074°01'0 0.0
2018-Feb-22 15:50N 40°40' W 074°01'0 0.0
2018-Feb-22 15:30N 40°40' W 074°01'0 0.0
2018-Feb-22 15:00N 40°40' W 074°01'3 6.8
2018-Feb-22 14:30N 40°44' W 074°01'2 3.6
2018-Feb-22 14:00N 40°46' W 074°01'1 2.4
2018-Feb-22 13:29N 40°46' W 073°60'0 0.4
2018-Feb-22 13:00N 40°46' W 074°00'1 2.6
2018-Feb-22 12:29N 40°45' W 074°01'1 2.1
2018-Feb-22 12:00N 40°44' W 074°01'2 3.4
2018-Feb-22 11:28N 40°43' W 073°59'1 1.9
2018-Feb-22 11:00N 40°42' W 073°58'0 0.1
2018-Feb-22 10:30N 40°42' W 073°58'0 0.1
2018-Feb-22 09:55N 40°42' W 073°58'0 0.0
2018-Feb-22 09:24N 40°42' W 073°58'0 0.1
2018-Feb-22 09:00N 40°42' W 073°58'0 0.0
2018-Feb-22 08:30N 40°42' W 073°58'1 2.4
2018-Feb-22 08:00N 40°42' W 074°00'2 3.7
2018-Feb-22 07:31N 40°40' W 074°01'0 0.1
2018-Feb-22 07:01N 40°40' W 074°01'0 0.0
2018-Feb-21 14:22N 40°40' W 074°01'2 4.6
2018-Feb-21 13:59N 40°42' W 074°01'4 8.1
2018-Feb-21 13:30N 40°46' W 074°00'0 0.2
2018-Feb-21 13:00N 40°46' W 074°00'0 0.6
2018-Feb-21 12:30N 40°46' W 074°00'2 3.7
2018-Feb-21 12:00N 40°44' W 074°01'1 1.2
2018-Feb-21 11:31N 40°43' W 074°01'2 4.5
2018-Feb-21 10:59N 40°42' W 073°58'0 0.1
2018-Feb-21 09:58N 40°42' W 073°58'0 0.1
2018-Feb-21 09:14N 40°42' W 073°58'0 0.1
2018-Feb-21 08:58N 40°42' W 073°58'0 0.1
2018-Feb-21 08:30N 40°42' W 073°58'2 3.5
2018-Feb-21 08:00N 40°41' W 074°00'1 2.1
2018-Feb-21 07:28N 40°40' W 074°01'0 0.0
2018-Feb-20 14:22N 40°40' W 074°01'0 1.2
2018-Feb-20 14:00N 40°41' W 074°01'3 6.1
2018-Feb-20 13:30N 40°44' W 074°01'2 4.3
2018-Feb-20 13:01N 40°46' W 074°00'0 0.1
2018-Feb-20 12:31N 40°46' W 074°00'1 2.9
2018-Feb-20 12:00N 40°44' W 074°01'2 4.8
2018-Feb-20 11:30N 40°42' W 074°01'2 0.9
2018-Feb-20 09:07N 40°42' W 073°58'0 0.2
2018-Feb-20 08:59N 40°42' W 073°58'0 0.0
2018-Feb-20 08:26N 40°42' W 073°58'0 0.8
2018-Feb-20 07:55N 40°42' W 073°59'2 4.2
2018-Feb-20 07:23N 40°41' W 074°01'1 0.0
2018-Feb-19 15:37N 40°40' W 074°01'0 1.9
2018-Feb-19 15:30N 40°40' W 074°01'3 5.2
2018-Feb-19 14:59N 40°42' W 073°59'3 0.6
2018-Feb-19 10:50N 40°44' W 073°57'1 4.5
2018-Feb-19 10:30N 40°43' W 073°58'1 2.4
2018-Feb-19 09:59N 40°42' W 073°58'0 0.1
2018-Feb-19 09:30N 40°42' W 073°58'0 0.1
2018-Feb-19 08:53N 40°42' W 073°58'1 2.0
2018-Feb-19 08:30N 40°42' W 073°59'2 4.7
2018-Feb-19 08:00N 40°40' W 074°01'0 0.0
2018-Feb-19 07:28N 40°40' W 074°01'0 0.1
2018-Feb-19 06:59N 40°40' W 074°01'0 0.0
2018-Feb-18 10:32N 40°40' W 074°01'0 0.1
2018-Feb-18 10:28N 40°40' W 074°01'1 3.2
2018-Feb-18 10:00N 40°42' W 074°00'2 3.1
2018-Feb-18 09:30N 40°42' W 073°58'0 0.2
2018-Feb-18 09:00N 40°42' W 073°58'0 0.2
2018-Feb-18 08:29N 40°42' W 073°58'0 0.0
2018-Feb-18 08:00N 40°42' W 073°58'2 4.1
2018-Feb-18 07:30N 40°41' W 074°01'1 1.6
2018-Feb-18 07:00N 40°40' W 074°01'0 0.0
2018-Feb-17 14:22N 40°40' W 074°01'1 3.9
2018-Feb-17 14:00N 40°42' W 074°00'3 5.1
2018-Feb-17 13:29N 40°44' W 073°58'1 0.8
2018-Feb-17 11:55N 40°44' W 073°57'3 6.0
2018-Feb-17 11:30N 40°42' W 073°58'0 0.2
2018-Feb-17 10:58N 40°42' W 073°58'0 0.1
2018-Feb-17 10:28N 40°42' W 073°58'0 0.1
2018-Feb-17 09:59N 40°42' W 073°58'0 0.1
2018-Feb-17 09:29N 40°42' W 073°58'0 0.1
2018-Feb-17 08:57N 40°42' W 073°58'0 0.0
2018-Feb-17 08:30N 40°42' W 073°58'0 0.1
2018-Feb-17 08:00N 40°42' W 073°58'2 4.6
2018-Feb-17 07:30N 40°41' W 074°01'1 1.2
2018-Feb-17 07:00N 40°40' W 074°01'0 0.0
2018-Feb-16 15:35N 40°40' W 074°01'0 0.6
2018-Feb-16 15:29N 40°40' W 074°01'3 6.8
2018-Feb-16 15:00N 40°43' W 073°58'2 0.5
2018-Feb-16 10:49N 40°45' W 073°58'3 9.0
2018-Feb-16 10:30N 40°42' W 073°58'0 0.1
2018-Feb-16 09:22N 40°42' W 073°58'0 0.1
2018-Feb-16 09:00N 40°42' W 073°58'1 1.8
2018-Feb-16 08:30N 40°42' W 073°60'2 0.2
2018-Feb-15 17:29N 40°40' W 074°01'0 0.9
2018-Feb-15 17:00N 40°40' W 074°01'8 1.9
2018-Feb-15 12:46N 40°38' W 074°12'0 0.0
2018-Feb-15 12:30N 40°38' W 074°12'3 5.1
2018-Feb-15 12:00N 40°39' W 074°08'4 7.5
2018-Feb-15 11:30N 40°40' W 074°04'4 6.9
2018-Feb-15 10:58N 40°42' W 074°00'1 1.1
2018-Feb-15 09:46N 40°42' W 073°58'0 0.0
2018-Feb-15 09:30N 40°42' W 073°58'0 0.1
2018-Feb-15 08:52N 40°42' W 073°58'0 0.4
2018-Feb-15 08:30N 40°42' W 073°58'0 0.4
2018-Feb-15 08:00N 40°42' W 073°59'3 5.4
2018-Feb-15 07:30N 40°40' W 074°01'0 0.0
2018-Feb-14 15:46N 40°40' W 074°01'0 0.1
2018-Feb-14 15:30N 40°40' W 074°01'3 6.4
2018-Feb-14 15:00N 40°43' W 074°01'1 2.8
2018-Feb-14 14:30N 40°45' W 074°01'0 0.0
2018-Feb-14 13:59N 40°45' W 074°01'0 0.1
2018-Feb-14 13:30N 40°45' W 074°01'0 0.2
2018-Feb-14 12:59N 40°45' W 074°01'1 1.9
2018-Feb-14 12:30N 40°44' W 074°01'0 0.0
2018-Feb-14 12:00N 40°44' W 074°01'2 3.6
2018-Feb-14 11:30N 40°42' W 074°01'2 3.9
2018-Feb-14 11:00N 40°42' W 073°58'0 0.1
2018-Feb-14 10:30N 40°42' W 073°58'0 0.1
2018-Feb-14 09:59N 40°42' W 073°58'0 0.0
2018-Feb-14 09:29N 40°42' W 073°58'0 0.1
2018-Feb-14 09:00N 40°42' W 073°58'0 0.0
2018-Feb-14 08:30N 40°42' W 073°58'1 2.8
2018-Feb-14 08:00N 40°42' W 074°00'2 3.2
2018-Feb-14 07:30N 40°40' W 074°01'0 0.2
2018-Feb-14 07:00N 40°40' W 074°01'  
Track history (hours):
 
Tides and Currents Weather Stations Pressure Air Temp Water Temp Dewpoint Dewpoint Depression Visibility Wind Speed Wind Dir Waves Ship Positions

Chandra B

Owner: American petroleum & Transport, Inc., Port Jefferson, NY. More information available from US FCC via Universal Licensing System and Coast Guard Vessel Documentation Center.

Last reported at 2018-Feb-23 15:26 UTC. Time now 2018-Feb-23 23:59 UTC.
Position N 40°40' W 074°01'.

Length 23 m; draft 3.6 m.

Type: Tanker. MMSI: 367686920.

Date/timePositionNaut miles runAvg speedWind from/ knotsBaromVisibWave heightAir tempDewpointWater temp
2018-Feb-23 15:26N 40°40' W 074°01'2 4.4
2018-Feb-23 15:00N 40°42' W 074°00'2 3.7
2018-Feb-23 14:29N 40°43' W 073°58'1 1.8
2018-Feb-23 13:59N 40°44' W 073°58'1 0.5
2018-Feb-23 11:55N 40°44' W 073°56'1 1.8
2018-Feb-23 11:30N 40°44' W 073°57'2 4.9
2018-Feb-23 11:00N 40°42' W 073°58'0 0.0
2018-Feb-23 10:30N 40°42' W 073°58'0 0.1
2018-Feb-23 10:00N 40°42' W 073°58'0 0.1
2018-Feb-23 09:30N 40°42' W 073°58'0 0.1
2018-Feb-23 08:59N 40°42' W 073°58'0 0.0
2018-Feb-23 08:30N 40°42' W 073°58'2 3.7
2018-Feb-23 08:00N 40°41' W 074°01'1 1.8
2018-Feb-23 07:28N 40°40' W 074°01'0 0.1
2018-Feb-23 07:00N 40°40' W 074°01'0 0.0
2018-Feb-22 15:50N 40°40' W 074°01'0 0.0
2018-Feb-22 15:30N 40°40' W 074°01'0 0.0
2018-Feb-22 15:00N 40°40' W 074°01'3 6.8
2018-Feb-22 14:30N 40°44' W 074°01'2 3.6
2018-Feb-22 14:00N 40°46' W 074°01'1 2.4
2018-Feb-22 13:29N 40°46' W 073°60'0 0.4
2018-Feb-22 13:00N 40°46' W 074°00'1 2.6
2018-Feb-22 12:29N 40°45' W 074°01'1 2.1
2018-Feb-22 12:00N 40°44' W 074°01'2 3.4
2018-Feb-22 11:28N 40°43' W 073°59'1 1.9
2018-Feb-22 11:00N 40°42' W 073°58'0 0.1
2018-Feb-22 10:30N 40°42' W 073°58'0 0.1
2018-Feb-22 09:55N 40°42' W 073°58'0 0.0
2018-Feb-22 09:24N 40°42' W 073°58'0 0.1
2018-Feb-22 09:00N 40°42' W 073°58'0 0.0
2018-Feb-22 08:30N 40°42' W 073°58'1 2.4
2018-Feb-22 08:00N 40°42' W 074°00'2 3.7
2018-Feb-22 07:31N 40°40' W 074°01'0 0.1
2018-Feb-22 07:01N 40°40' W 074°01'0 0.0
2018-Feb-21 14:22N 40°40' W 074°01'2 4.6
2018-Feb-21 13:59N 40°42' W 074°01'4 8.1
2018-Feb-21 13:30N 40°46' W 074°00'0 0.2
2018-Feb-21 13:00N 40°46' W 074°00'0 0.6
2018-Feb-21 12:30N 40°46' W 074°00'2 3.7
2018-Feb-21 12:00N 40°44' W 074°01'1 1.2
2018-Feb-21 11:31N 40°43' W 074°01'2 4.5
2018-Feb-21 10:59N 40°42' W 073°58'0 0.1
2018-Feb-21 09:58N 40°42' W 073°58'0 0.1
2018-Feb-21 09:14N 40°42' W 073°58'0 0.1
2018-Feb-21 08:58N 40°42' W 073°58'0 0.1
2018-Feb-21 08:30N 40°42' W 073°58'2 3.5
2018-Feb-21 08:00N 40°41' W 074°00'1 2.1
2018-Feb-21 07:28N 40°40' W 074°01'0 0.0
2018-Feb-20 14:22N 40°40' W 074°01'0 1.2
2018-Feb-20 14:00N 40°41' W 074°01'3 6.1
2018-Feb-20 13:30N 40°44' W 074°01'2 4.3
2018-Feb-20 13:01N 40°46' W 074°00'0 0.1
2018-Feb-20 12:31N 40°46' W 074°00'1 2.9
2018-Feb-20 12:00N 40°44' W 074°01'2 4.8
2018-Feb-20 11:30N 40°42' W 074°01'2 0.9
2018-Feb-20 09:07N 40°42' W 073°58'0 0.2
2018-Feb-20 08:59N 40°42' W 073°58'0 0.0
2018-Feb-20 08:26N 40°42' W 073°58'0 0.8
2018-Feb-20 07:55N 40°42' W 073°59'2 4.2
2018-Feb-20 07:23N 40°41' W 074°01'1 0.0
2018-Feb-19 15:37N 40°40' W 074°01'0 1.9
2018-Feb-19 15:30N 40°40' W 074°01'3 5.2
2018-Feb-19 14:59N 40°42' W 073°59'3 0.6
2018-Feb-19 10:50N 40°44' W 073°57'1 4.5
2018-Feb-19 10:30N 40°43' W 073°58'1 2.4
2018-Feb-19 09:59N 40°42' W 073°58'0 0.1
2018-Feb-19 09:30N 40°42' W 073°58'0 0.1
2018-Feb-19 08:53N 40°42' W 073°58'1 2.0
2018-Feb-19 08:30N 40°42' W 073°59'2 4.7
2018-Feb-19 08:00N 40°40' W 074°01'0 0.0
2018-Feb-19 07:28N 40°40' W 074°01'0 0.1
2018-Feb-19 06:59N 40°40' W 074°01'0 0.0
2018-Feb-18 10:32N 40°40' W 074°01'0 0.1
2018-Feb-18 10:28N 40°40' W 074°01'1 3.2
2018-Feb-18 10:00N 40°42' W 074°00'2 3.1
2018-Feb-18 09:30N 40°42' W 073°58'0 0.2
2018-Feb-18 09:00N 40°42' W 073°58'0 0.2
2018-Feb-18 08:29N 40°42' W 073°58'0 0.0
2018-Feb-18 08:00N 40°42' W 073°58'2 4.1
2018-Feb-18 07:30N 40°41' W 074°01'1 1.6
2018-Feb-18 07:00N 40°40' W 074°01'0 0.0
2018-Feb-17 14:22N 40°40' W 074°01'1 3.9
2018-Feb-17 14:00N 40°42' W 074°00'3 5.1
2018-Feb-17 13:29N 40°44' W 073°58'1 0.8
2018-Feb-17 11:55N 40°44' W 073°57'3 6.0
2018-Feb-17 11:30N 40°42' W 073°58'0 0.2
2018-Feb-17 10:58N 40°42' W 073°58'0 0.1
2018-Feb-17 10:28N 40°42' W 073°58'0 0.1
2018-Feb-17 09:59N 40°42' W 073°58'0 0.1
2018-Feb-17 09:29N 40°42' W 073°58'0 0.1
2018-Feb-17 08:57N 40°42' W 073°58'0 0.0
2018-Feb-17 08:30N 40°42' W 073°58'0 0.1
2018-Feb-17 08:00N 40°42' W 073°58'2 4.6
2018-Feb-17 07:30N 40°41' W 074°01'1 1.2
2018-Feb-17 07:00N 40°40' W 074°01'0 0.0
2018-Feb-16 15:35N 40°40' W 074°01'0 0.6
2018-Feb-16 15:29N 40°40' W 074°01'3 6.8
2018-Feb-16 15:00N 40°43' W 073°58'2 0.5
2018-Feb-16 10:49N 40°45' W 073°58'3 9.0
2018-Feb-16 10:30N 40°42' W 073°58'0 0.1
2018-Feb-16 09:22N 40°42' W 073°58'0 0.1
2018-Feb-16 09:00N 40°42' W 073°58'1 1.8
2018-Feb-16 08:30N 40°42' W 073°60'2 0.2
2018-Feb-15 17:29N 40°40' W 074°01'0 0.9
2018-Feb-15 17:00N 40°40' W 074°01'8 1.9
2018-Feb-15 12:46N 40°38' W 074°12'0 0.0
2018-Feb-15 12:30N 40°38' W 074°12'3 5.1
2018-Feb-15 12:00N 40°39' W 074°08'4 7.5
2018-Feb-15 11:30N 40°40' W 074°04'4 6.9
2018-Feb-15 10:58N 40°42' W 074°00'1 1.1
2018-Feb-15 09:46N 40°42' W 073°58'0 0.0
2018-Feb-15 09:30N 40°42' W 073°58'0 0.1
2018-Feb-15 08:52N 40°42' W 073°58'0 0.4
2018-Feb-15 08:30N 40°42' W 073°58'0 0.4
2018-Feb-15 08:00N 40°42' W 073°59'3 5.4
2018-Feb-15 07:30N 40°40' W 074°01'0 0.0
2018-Feb-14 15:46N 40°40' W 074°01'0 0.1
2018-Feb-14 15:30N 40°40' W 074°01'3 6.4
2018-Feb-14 15:00N 40°43' W 074°01'1 2.8
2018-Feb-14 14:30N 40°45' W 074°01'0 0.0
2018-Feb-14 13:59N 40°45' W 074°01'0 0.1
2018-Feb-14 13:30N 40°45' W 074°01'0 0.2
2018-Feb-14 12:59N 40°45' W 074°01'1 1.9
2018-Feb-14 12:30N 40°44' W 074°01'0 0.0
2018-Feb-14 12:00N 40°44' W 074°01'2 3.6
2018-Feb-14 11:30N 40°42' W 074°01'2 3.9
2018-Feb-14 11:00N 40°42' W 073°58'0 0.1
2018-Feb-14 10:30N 40°42' W 073°58'0 0.1
2018-Feb-14 09:59N 40°42' W 073°58'0 0.0
2018-Feb-14 09:29N 40°42' W 073°58'0 0.1
2018-Feb-14 09:00N 40°42' W 073°58'0 0.0
2018-Feb-14 08:30N 40°42' W 073°58'1 2.8
2018-Feb-14 08:00N 40°42' W 074°00'2 3.2
2018-Feb-14 07:30N 40°40' W 074°01'0 0.2
2018-Feb-14 07:00N 40°40' W 074°01'  

Dump ship's entire track history